sensor_id;sensor_type;location;lat;lon;timestamp;P1;durP1;ratioP1;P2;durP2;ratioP2
17935;SDS011;9093;52.062;4.508;2023-03-01T00:01:12;5.85;;;3.63;;
17935;SDS011;9093;52.062;4.508;2023-03-01T00:03:54;5.50;;;3.88;;
17935;SDS011;9093;52.062;4.508;2023-03-01T00:06:35;8.73;;;5.00;;
17935;SDS011;9093;52.062;4.508;2023-03-01T00:09:17;7.82;;;4.65;;
17935;SDS011;9093;52.062;4.508;2023-03-01T00:11:57;7.78;;;4.07;;
17935;SDS011;9093;52.062;4.508;2023-03-01T00:14:37;8.55;;;4.35;;
17935;SDS011;9093;52.062;4.508;2023-03-01T00:17:18;9.45;;;4.47;;
17935;SDS011;9093;52.062;4.508;2023-03-01T00:19:58;13.82;;;4.03;;
17935;SDS011;9093;52.062;4.508;2023-03-01T00:22:38;8.77;;;4.22;;
17935;SDS011;9093;52.062;4.508;2023-03-01T00:25:19;9.10;;;4.03;;
17935;SDS011;9093;52.062;4.508;2023-03-01T00:27:59;8.02;;;4.45;;
17935;SDS011;9093;52.062;4.508;2023-03-01T00:30:39;7.07;;;3.58;;
17935;SDS011;9093;52.062;4.508;2023-03-01T00:33:20;5.30;;;3.83;;
17935;SDS011;9093;52.062;4.508;2023-03-01T00:36:01;9.85;;;4.47;;
17935;SDS011;9093;52.062;4.508;2023-03-01T00:38:43;8.53;;;3.97;;
17935;SDS011;9093;52.062;4.508;2023-03-01T00:41:24;9.73;;;5.38;;
17935;SDS011;9093;52.062;4.508;2023-03-01T00:44:08;10.63;;;5.45;;
17935;SDS011;9093;52.062;4.508;2023-03-01T00:46:48;5.70;;;3.78;;
17935;SDS011;9093;52.062;4.508;2023-03-01T00:49:29;11.23;;;5.13;;
17935;SDS011;9093;52.062;4.508;2023-03-01T00:52:09;9.05;;;5.38;;
17935;SDS011;9093;52.062;4.508;2023-03-01T00:54:51;5.30;;;3.53;;
17935;SDS011;9093;52.062;4.508;2023-03-01T00:57:32;9.10;;;4.70;;
17935;SDS011;9093;52.062;4.508;2023-03-01T01:00:13;8.93;;;4.32;;
17935;SDS011;9093;52.062;4.508;2023-03-01T01:02:54;9.13;;;4.30;;
17935;SDS011;9093;52.062;4.508;2023-03-01T01:05:34;11.55;;;5.35;;
17935;SDS011;9093;52.062;4.508;2023-03-01T01:08:15;8.32;;;5.20;;
17935;SDS011;9093;52.062;4.508;2023-03-01T01:10:55;10.57;;;4.60;;
17935;SDS011;9093;52.062;4.508;2023-03-01T01:13:36;8.63;;;4.65;;
17935;SDS011;9093;52.062;4.508;2023-03-01T01:16:20;11.13;;;4.85;;
17935;SDS011;9093;52.062;4.508;2023-03-01T01:19:03;9.93;;;5.00;;
17935;SDS011;9093;52.062;4.508;2023-03-01T01:21:43;8.27;;;4.50;;
17935;SDS011;9093;52.062;4.508;2023-03-01T01:24:24;14.40;;;6.05;;
17935;SDS011;9093;52.062;4.508;2023-03-01T01:27:05;9.52;;;4.20;;
17935;SDS011;9093;52.062;4.508;2023-03-01T01:29:47;15.50;;;5.93;;
17935;SDS011;9093;52.062;4.508;2023-03-01T01:32:27;9.60;;;5.55;;
17935;SDS011;9093;52.062;4.508;2023-03-01T01:35:08;6.47;;;3.95;;
17935;SDS011;9093;52.062;4.508;2023-03-01T01:37:49;6.55;;;4.10;;
17935;SDS011;9093;52.062;4.508;2023-03-01T01:40:29;15.43;;;5.10;;
17935;SDS011;9093;52.062;4.508;2023-03-01T01:43:33;8.73;;;4.72;;
17935;SDS011;9093;52.062;4.508;2023-03-01T01:46:26;18.92;;;4.78;;
17935;SDS011;9093;52.062;4.508;2023-03-01T01:52:31;10.52;;;4.78;;
17935;SDS011;9093;52.062;4.508;2023-03-01T01:55:16;5.82;;;4.15;;
17935;SDS011;9093;52.062;4.508;2023-03-01T01:58:04;11.88;;;5.20;;
17935;SDS011;9093;52.062;4.508;2023-03-01T02:00:48;15.18;;;6.22;;
17935;SDS011;9093;52.062;4.508;2023-03-01T02:03:30;10.90;;;5.55;;
17935;SDS011;9093;52.062;4.508;2023-03-01T02:09:00;10.85;;;5.78;;
17935;SDS011;9093;52.062;4.508;2023-03-01T02:11:44;16.15;;;7.07;;
17935;SDS011;9093;52.062;4.508;2023-03-01T02:14:24;11.93;;;5.82;;
17935;SDS011;9093;52.062;4.508;2023-03-01T02:17:06;10.60;;;5.10;;
17935;SDS011;9093;52.062;4.508;2023-03-01T02:22:57;8.07;;;5.88;;
17935;SDS011;9093;52.062;4.508;2023-03-01T02:25:50;10.73;;;4.68;;
17935;SDS011;9093;52.062;4.508;2023-03-01T02:28:37;19.30;;;5.47;;
17935;SDS011;9093;52.062;4.508;2023-03-01T02:31:20;10.02;;;5.15;;
17935;SDS011;9093;52.062;4.508;2023-03-01T02:34:21;8.70;;;5.32;;
17935;SDS011;9093;52.062;4.508;2023-03-01T02:37:08;9.57;;;5.43;;
17935;SDS011;9093;52.062;4.508;2023-03-01T02:40:02;13.63;;;5.57;;
17935;SDS011;9093;52.062;4.508;2023-03-01T02:42:50;9.05;;;4.63;;
17935;SDS011;9093;52.062;4.508;2023-03-01T02:45:35;19.42;;;6.25;;
17935;SDS011;9093;52.062;4.508;2023-03-01T02:48:16;15.10;;;6.40;;
17935;SDS011;9093;52.062;4.508;2023-03-01T02:56:58;21.70;;;7.40;;
17935;SDS011;9093;52.062;4.508;2023-03-01T02:59:39;17.48;;;6.68;;
17935;SDS011;9093;52.062;4.508;2023-03-01T03:02:26;12.52;;;6.90;;
17935;SDS011;9093;52.062;4.508;2023-03-01T03:05:18;10.88;;;6.13;;
17935;SDS011;9093;52.062;4.508;2023-03-01T03:08:06;15.25;;;7.05;;
17935;SDS011;9093;52.062;4.508;2023-03-01T03:10:47;13.50;;;6.40;;
17935;SDS011;9093;52.062;4.508;2023-03-01T03:13:27;19.08;;;6.82;;
17935;SDS011;9093;52.062;4.508;2023-03-01T03:16:08;11.40;;;6.05;;
17935;SDS011;9093;52.062;4.508;2023-03-01T03:18:48;14.70;;;6.90;;
17935;SDS011;9093;52.062;4.508;2023-03-01T03:21:29;11.35;;;5.78;;
17935;SDS011;9093;52.062;4.508;2023-03-01T03:24:09;23.35;;;7.38;;
17935;SDS011;9093;52.062;4.508;2023-03-01T03:26:50;12.77;;;6.88;;
17935;SDS011;9093;52.062;4.508;2023-03-01T03:29:30;32.08;;;7.28;;
17935;SDS011;9093;52.062;4.508;2023-03-01T03:32:10;12.75;;;6.32;;
17935;SDS011;9093;52.062;4.508;2023-03-01T03:34:51;15.45;;;7.18;;
17935;SDS011;9093;52.062;4.508;2023-03-01T03:37:31;13.23;;;6.00;;
17935;SDS011;9093;52.062;4.508;2023-03-01T03:40:31;12.70;;;5.70;;
17935;SDS011;9093;52.062;4.508;2023-03-01T03:43:17;14.00;;;6.32;;
17935;SDS011;9093;52.062;4.508;2023-03-01T03:45:59;11.60;;;5.82;;
17935;SDS011;9093;52.062;4.508;2023-03-01T03:48:41;16.33;;;5.72;;
17935;SDS011;9093;52.062;4.508;2023-03-01T03:51:23;23.83;;;7.32;;
17935;SDS011;9093;52.062;4.508;2023-03-01T03:54:04;17.65;;;6.40;;
17935;SDS011;9093;52.062;4.508;2023-03-01T03:56:44;10.38;;;5.50;;
17935;SDS011;9093;52.062;4.508;2023-03-01T03:59:24;22.85;;;5.82;;
17935;SDS011;9093;52.062;4.508;2023-03-01T04:02:05;21.58;;;5.13;;
17935;SDS011;9093;52.062;4.508;2023-03-01T04:04:45;10.27;;;5.50;;
17935;SDS011;9093;52.062;4.508;2023-03-01T04:07:25;10.98;;;5.65;;
17935;SDS011;9093;52.062;4.508;2023-03-01T04:10:07;11.40;;;6.22;;
17935;SDS011;9093;52.062;4.508;2023-03-01T04:12:50;11.30;;;5.00;;
17935;SDS011;9093;52.062;4.508;2023-03-01T04:15:31;14.60;;;6.95;;
17935;SDS011;9093;52.062;4.508;2023-03-01T04:18:13;10.10;;;5.05;;
17935;SDS011;9093;52.062;4.508;2023-03-01T04:20:54;9.27;;;5.25;;
17935;SDS011;9093;52.062;4.508;2023-03-01T04:23:35;7.95;;;4.88;;
17935;SDS011;9093;52.062;4.508;2023-03-01T04:26:15;11.02;;;5.28;;
17935;SDS011;9093;52.062;4.508;2023-03-01T04:28:56;11.38;;;5.55;;
17935;SDS011;9093;52.062;4.508;2023-03-01T04:31:36;14.27;;;6.38;;
17935;SDS011;9093;52.062;4.508;2023-03-01T04:34:16;10.18;;;4.40;;
17935;SDS011;9093;52.062;4.508;2023-03-01T04:36:57;18.70;;;5.72;;
17935;SDS011;9093;52.062;4.508;2023-03-01T04:39:37;23.00;;;5.07;;
17935;SDS011;9093;52.062;4.508;2023-03-01T04:42:25;10.63;;;5.43;;
17935;SDS011;9093;52.062;4.508;2023-03-01T04:45:05;8.23;;;5.07;;
17935;SDS011;9093;52.062;4.508;2023-03-01T04:47:52;7.43;;;4.43;;
17935;SDS011;9093;52.062;4.508;2023-03-01T04:50:33;9.05;;;5.07;;
17935;SDS011;9093;52.062;4.508;2023-03-01T04:53:14;12.32;;;5.55;;
17935;SDS011;9093;52.062;4.508;2023-03-01T04:55:55;23.42;;;5.50;;
17935;SDS011;9093;52.062;4.508;2023-03-01T04:58:36;9.63;;;4.68;;
17935;SDS011;9093;52.062;4.508;2023-03-01T05:01:20;9.68;;;4.78;;
17935;SDS011;9093;52.062;4.508;2023-03-01T05:04:00;9.00;;;5.03;;
17935;SDS011;9093;52.062;4.508;2023-03-01T05:06:45;9.93;;;5.50;;
17935;SDS011;9093;52.062;4.508;2023-03-01T05:09:25;10.40;;;5.40;;
17935;SDS011;9093;52.062;4.508;2023-03-01T05:12:06;8.57;;;5.00;;
17935;SDS011;9093;52.062;4.508;2023-03-01T05:14:46;10.25;;;5.28;;
17935;SDS011;9093;52.062;4.508;2023-03-01T05:17:26;8.70;;;4.55;;
17935;SDS011;9093;52.062;4.508;2023-03-01T05:20:07;9.30;;;5.47;;
17935;SDS011;9093;52.062;4.508;2023-03-01T05:22:49;7.93;;;4.90;;
17935;SDS011;9093;52.062;4.508;2023-03-01T05:25:31;7.75;;;4.68;;
17935;SDS011;9093;52.062;4.508;2023-03-01T05:28:13;9.45;;;5.80;;
17935;SDS011;9093;52.062;4.508;2023-03-01T05:30:54;9.15;;;5.22;;
17935;SDS011;9093;52.062;4.508;2023-03-01T05:33:44;16.17;;;5.68;;
17935;SDS011;9093;52.062;4.508;2023-03-01T05:36:25;7.13;;;4.68;;
17935;SDS011;9093;52.062;4.508;2023-03-01T05:39:05;8.75;;;5.03;;
17935;SDS011;9093;52.062;4.508;2023-03-01T05:41:46;13.10;;;6.80;;
17935;SDS011;9093;52.062;4.508;2023-03-01T05:44:27;14.55;;;5.15;;
17935;SDS011;9093;52.062;4.508;2023-03-01T05:47:08;10.00;;;4.97;;
17935;SDS011;9093;52.062;4.508;2023-03-01T05:49:48;8.82;;;5.03;;
17935;SDS011;9093;52.062;4.508;2023-03-01T05:52:30;8.60;;;4.85;;
17935;SDS011;9093;52.062;4.508;2023-03-01T05:55:10;15.20;;;5.55;;
17935;SDS011;9093;52.062;4.508;2023-03-01T05:57:50;6.93;;;5.13;;
17935;SDS011;9093;52.062;4.508;2023-03-01T06:00:31;8.35;;;4.57;;
17935;SDS011;9093;52.062;4.508;2023-03-01T06:03:13;8.00;;;4.25;;
17935;SDS011;9093;52.062;4.508;2023-03-01T06:05:57;7.15;;;4.10;;
17935;SDS011;9093;52.062;4.508;2023-03-01T06:08:38;25.50;;;4.07;;
17935;SDS011;9093;52.062;4.508;2023-03-01T06:11:19;5.55;;;3.70;;
17935;SDS011;9093;52.062;4.508;2023-03-01T06:14:00;4.55;;;2.58;;
17935;SDS011;9093;52.062;4.508;2023-03-01T06:16:41;6.80;;;4.75;;
17935;SDS011;9093;52.062;4.508;2023-03-01T06:19:21;5.22;;;3.88;;
17935;SDS011;9093;52.062;4.508;2023-03-01T06:22:01;6.68;;;4.05;;
17935;SDS011;9093;52.062;4.508;2023-03-01T06:24:41;9.02;;;4.28;;
17935;SDS011;9093;52.062;4.508;2023-03-01T06:27:22;9.27;;;4.20;;
17935;SDS011;9093;52.062;4.508;2023-03-01T06:30:03;8.07;;;5.45;;
17935;SDS011;9093;52.062;4.508;2023-03-01T06:32:43;9.73;;;4.65;;
17935;SDS011;9093;52.062;4.508;2023-03-01T06:35:24;5.80;;;3.95;;
17935;SDS011;9093;52.062;4.508;2023-03-01T06:38:09;8.10;;;4.22;;
17935;SDS011;9093;52.062;4.508;2023-03-01T06:40:53;7.65;;;4.72;;
17935;SDS011;9093;52.062;4.508;2023-03-01T06:43:35;8.65;;;3.80;;
17935;SDS011;9093;52.062;4.508;2023-03-01T06:46:15;12.02;;;5.85;;
17935;SDS011;9093;52.062;4.508;2023-03-01T06:48:56;9.45;;;4.93;;
17935;SDS011;9093;52.062;4.508;2023-03-01T06:51:36;9.60;;;5.10;;
17935;SDS011;9093;52.062;4.508;2023-03-01T06:54:16;8.57;;;4.80;;
17935;SDS011;9093;52.062;4.508;2023-03-01T06:56:57;6.40;;;4.35;;
17935;SDS011;9093;52.062;4.508;2023-03-01T06:59:38;11.25;;;6.00;;
17935;SDS011;9093;52.062;4.508;2023-03-01T07:02:18;13.93;;;5.53;;
17935;SDS011;9093;52.062;4.508;2023-03-01T07:04:58;9.45;;;5.93;;
17935;SDS011;9093;52.062;4.508;2023-03-01T07:07:39;14.32;;;5.57;;
17935;SDS011;9093;52.062;4.508;2023-03-01T07:10:19;9.77;;;5.82;;
17935;SDS011;9093;52.062;4.508;2023-03-01T07:12:59;12.20;;;5.72;;
17935;SDS011;9093;52.062;4.508;2023-03-01T07:15:40;11.23;;;6.35;;
17935;SDS011;9093;52.062;4.508;2023-03-01T07:18:20;8.65;;;6.22;;
17935;SDS011;9093;52.062;4.508;2023-03-01T07:21:05;11.63;;;6.10;;
17935;SDS011;9093;52.062;4.508;2023-03-01T07:23:49;10.70;;;6.47;;
17935;SDS011;9093;52.062;4.508;2023-03-01T07:26:30;7.28;;;5.00;;
17935;SDS011;9093;52.062;4.508;2023-03-01T07:29:10;8.02;;;4.82;;
17935;SDS011;9093;52.062;4.508;2023-03-01T07:31:51;9.18;;;4.85;;
17935;SDS011;9093;52.062;4.508;2023-03-01T07:34:31;10.80;;;5.40;;
17935;SDS011;9093;52.062;4.508;2023-03-01T07:37:12;10.93;;;5.85;;
17935;SDS011;9093;52.062;4.508;2023-03-01T07:39:52;7.45;;;4.88;;
17935;SDS011;9093;52.062;4.508;2023-03-01T07:42:33;11.00;;;4.97;;
17935;SDS011;9093;52.062;4.508;2023-03-01T07:45:13;8.15;;;5.47;;
17935;SDS011;9093;52.062;4.508;2023-03-01T07:47:54;18.00;;;7.10;;
17935;SDS011;9093;52.062;4.508;2023-03-01T07:50:35;15.95;;;6.28;;
17935;SDS011;9093;52.062;4.508;2023-03-01T07:53:15;9.45;;;6.35;;
17935;SDS011;9093;52.062;4.508;2023-03-01T07:58:43;14.90;;;7.45;;
17935;SDS011;9093;52.062;4.508;2023-03-01T08:01:24;14.98;;;6.13;;
17935;SDS011;9093;52.062;4.508;2023-03-01T08:04:05;9.48;;;6.22;;
17935;SDS011;9093;52.062;4.508;2023-03-01T08:06:47;8.23;;;4.20;;
17935;SDS011;9093;52.062;4.508;2023-03-01T08:09:27;14.48;;;5.95;;
17935;SDS011;9093;52.062;4.508;2023-03-01T08:12:07;15.65;;;5.50;;
17935;SDS011;9093;52.062;4.508;2023-03-01T08:14:48;16.52;;;8.70;;
17935;SDS011;9093;52.062;4.508;2023-03-01T08:17:29;19.80;;;7.00;;
17935;SDS011;9093;52.062;4.508;2023-03-01T08:20:09;15.57;;;7.60;;
17935;SDS011;9093;52.062;4.508;2023-03-01T08:22:52;15.73;;;8.02;;
17935;SDS011;9093;52.062;4.508;2023-03-01T08:25:32;19.00;;;7.53;;
17935;SDS011;9093;52.062;4.508;2023-03-01T08:28:14;14.93;;;7.47;;
17935;SDS011;9093;52.062;4.508;2023-03-01T08:30:54;23.27;;;7.35;;
17935;SDS011;9093;52.062;4.508;2023-03-01T08:33:34;17.55;;;8.65;;
17935;SDS011;9093;52.062;4.508;2023-03-01T08:36:15;14.95;;;7.88;;
17935;SDS011;9093;52.062;4.508;2023-03-01T08:38:55;12.57;;;7.45;;
17935;SDS011;9093;52.062;4.508;2023-03-01T08:41:36;19.38;;;8.30;;
17935;SDS011;9093;52.062;4.508;2023-03-01T08:44:16;9.68;;;5.65;;
17935;SDS011;9093;52.062;4.508;2023-03-01T08:46:57;14.45;;;6.40;;
17935;SDS011;9093;52.062;4.508;2023-03-01T08:49:38;16.70;;;6.85;;
17935;SDS011;9093;52.062;4.508;2023-03-01T08:52:19;12.77;;;8.20;;
17935;SDS011;9093;52.062;4.508;2023-03-01T08:55:00;21.17;;;6.45;;
17935;SDS011;9093;52.062;4.508;2023-03-01T08:57:41;11.30;;;7.57;;
17935;SDS011;9093;52.062;4.508;2023-03-01T09:00:21;16.25;;;7.07;;
17935;SDS011;9093;52.062;4.508;2023-03-01T09:03:03;13.98;;;5.40;;
17935;SDS011;9093;52.062;4.508;2023-03-01T09:05:44;15.02;;;7.60;;
17935;SDS011;9093;52.062;4.508;2023-03-01T09:08:25;12.82;;;6.10;;
17935;SDS011;9093;52.062;4.508;2023-03-01T09:11:07;15.30;;;6.15;;
17935;SDS011;9093;52.062;4.508;2023-03-01T09:16:29;11.00;;;5.95;;
17935;SDS011;9093;52.062;4.508;2023-03-01T09:19:13;7.20;;;4.53;;
17935;SDS011;9093;52.062;4.508;2023-03-01T09:21:54;15.23;;;6.05;;
17935;SDS011;9093;52.062;4.508;2023-03-01T09:24:35;11.82;;;6.20;;
17935;SDS011;9093;52.062;4.508;2023-03-01T09:27:16;10.93;;;5.97;;
17935;SDS011;9093;52.062;4.508;2023-03-01T09:29:58;11.90;;;6.15;;
17935;SDS011;9093;52.062;4.508;2023-03-01T09:32:38;14.05;;;7.60;;
17935;SDS011;9093;52.062;4.508;2023-03-01T09:35:22;20.63;;;5.72;;
17935;SDS011;9093;52.062;4.508;2023-03-01T09:38:03;13.68;;;7.20;;
17935;SDS011;9093;52.062;4.508;2023-03-01T09:40:43;12.18;;;5.45;;
17935;SDS011;9093;52.062;4.508;2023-03-01T09:43:29;9.35;;;4.63;;
17935;SDS011;9093;52.062;4.508;2023-03-01T09:46:21;14.02;;;6.00;;
17935;SDS011;9093;52.062;4.508;2023-03-01T09:49:05;12.35;;;6.00;;
17935;SDS011;9093;52.062;4.508;2023-03-01T09:54:37;10.52;;;5.95;;
17935;SDS011;9093;52.062;4.508;2023-03-01T10:00:30;9.23;;;3.97;;
17935;SDS011;9093;52.062;4.508;2023-03-01T10:03:23;6.32;;;4.00;;
17935;SDS011;9093;52.062;4.508;2023-03-01T10:06:23;8.50;;;4.32;;
17935;SDS011;9093;52.062;4.508;2023-03-01T10:09:21;10.93;;;3.85;;
17935;SDS011;9093;52.062;4.508;2023-03-01T10:12:02;13.35;;;5.88;;
17935;SDS011;9093;52.062;4.508;2023-03-01T10:14:51;8.10;;;3.38;;
17935;SDS011;9093;52.062;4.508;2023-03-01T10:17:39;8.70;;;5.43;;
17935;SDS011;9093;52.062;4.508;2023-03-01T10:20:30;7.72;;;4.22;;
17935;SDS011;9093;52.062;4.508;2023-03-01T10:23:22;4.90;;;3.88;;
17935;SDS011;9093;52.062;4.508;2023-03-01T10:29:20;6.75;;;3.90;;
17935;SDS011;9093;52.062;4.508;2023-03-01T10:32:06;6.53;;;3.60;;
17935;SDS011;9093;52.062;4.508;2023-03-01T10:34:46;9.18;;;3.65;;
17935;SDS011;9093;52.062;4.508;2023-03-01T10:37:27;7.68;;;3.67;;
17935;SDS011;9093;52.062;4.508;2023-03-01T10:40:08;11.00;;;3.47;;
17935;SDS011;9093;52.062;4.508;2023-03-01T10:42:49;5.45;;;3.33;;
17935;SDS011;9093;52.062;4.508;2023-03-01T10:53:42;6.38;;;3.00;;
17935;SDS011;9093;52.062;4.508;2023-03-01T10:56:28;5.80;;;3.15;;
17935;SDS011;9093;52.062;4.508;2023-03-01T10:59:21;5.00;;;3.40;;
17935;SDS011;9093;52.062;4.508;2023-03-01T11:02:21;9.32;;;3.72;;
17935;SDS011;9093;52.062;4.508;2023-03-01T11:07:53;5.97;;;3.40;;
17935;SDS011;9093;52.062;4.508;2023-03-01T11:13:16;9.10;;;4.13;;
17935;SDS011;9093;52.062;4.508;2023-03-01T11:16:02;8.13;;;4.07;;
17935;SDS011;9093;52.062;4.508;2023-03-01T11:18:45;8.73;;;4.03;;
17935;SDS011;9093;52.062;4.508;2023-03-01T11:21:39;5.43;;;3.10;;
17935;SDS011;9093;52.062;4.508;2023-03-01T11:24:26;5.75;;;3.47;;
17935;SDS011;9093;52.062;4.508;2023-03-01T11:27:28;5.85;;;3.75;;
17935;SDS011;9093;52.062;4.508;2023-03-01T11:35:42;13.20;;;3.55;;
17935;SDS011;9093;52.062;4.508;2023-03-01T11:38:30;4.55;;;3.20;;
17935;SDS011;9093;52.062;4.508;2023-03-01T11:41:15;6.80;;;2.88;;
17935;SDS011;9093;52.062;4.508;2023-03-01T11:44:10;6.40;;;3.80;;
17935;SDS011;9093;52.062;4.508;2023-03-01T11:50:01;10.32;;;4.07;;
17935;SDS011;9093;52.062;4.508;2023-03-01T11:52:58;9.43;;;4.53;;
17935;SDS011;9093;52.062;4.508;2023-03-01T12:01:59;9.20;;;4.15;;
17935;SDS011;9093;52.062;4.508;2023-03-01T12:07:53;7.50;;;3.90;;
17935;SDS011;9093;52.062;4.508;2023-03-01T12:11:06;10.05;;;5.07;;
17935;SDS011;9093;52.062;4.508;2023-03-01T12:17:15;8.95;;;4.88;;
17935;SDS011;9093;52.062;4.508;2023-03-01T12:23:25;10.95;;;5.03;;
17935;SDS011;9093;52.062;4.508;2023-03-01T12:26:33;11.07;;;4.97;;
17935;SDS011;9093;52.062;4.508;2023-03-01T12:29:31;7.22;;;3.58;;
17935;SDS011;9093;52.062;4.508;2023-03-01T12:41:29;13.80;;;5.03;;
17935;SDS011;9093;52.062;4.508;2023-03-01T12:44:28;8.80;;;4.37;;
17935;SDS011;9093;52.062;4.508;2023-03-01T12:50:48;9.10;;;4.65;;
17935;SDS011;9093;52.062;4.508;2023-03-01T12:53:34;14.93;;;5.15;;
17935;SDS011;9093;52.062;4.508;2023-03-01T12:56:19;14.50;;;5.07;;
17935;SDS011;9093;52.062;4.508;2023-03-01T12:59:13;9.65;;;4.95;;
17935;SDS011;9093;52.062;4.508;2023-03-01T13:02:03;11.05;;;4.93;;
17935;SDS011;9093;52.062;4.508;2023-03-01T13:05:06;9.02;;;4.88;;
17935;SDS011;9093;52.062;4.508;2023-03-01T13:07:53;9.85;;;5.32;;
17935;SDS011;9093;52.062;4.508;2023-03-01T13:10:50;20.50;;;5.88;;
17935;SDS011;9093;52.062;4.508;2023-03-01T13:13:33;9.35;;;4.95;;
17935;SDS011;9093;52.062;4.508;2023-03-01T13:19:13;12.07;;;3.40;;
17935;SDS011;9093;52.062;4.508;2023-03-01T13:21:56;7.57;;;3.58;;
17935;SDS011;9093;52.062;4.508;2023-03-01T13:24:40;7.57;;;2.20;;
17935;SDS011;9093;52.062;4.508;2023-03-01T13:27:22;6.10;;;2.47;;
17935;SDS011;9093;52.062;4.508;2023-03-01T13:30:51;8.02;;;2.38;;
17935;SDS011;9093;52.062;4.508;2023-03-01T13:36:08;6.95;;;3.20;;
17935;SDS011;9093;52.062;4.508;2023-03-01T13:44:34;4.45;;;2.58;;
17935;SDS011;9093;52.062;4.508;2023-03-01T13:47:18;6.55;;;2.88;;
17935;SDS011;9093;52.062;4.508;2023-03-01T13:50:00;8.63;;;2.65;;
17935;SDS011;9093;52.062;4.508;2023-03-01T13:55:42;5.65;;;3.08;;
17935;SDS011;9093;52.062;4.508;2023-03-01T13:58:28;4.38;;;2.25;;
17935;SDS011;9093;52.062;4.508;2023-03-01T14:01:20;5.45;;;2.70;;
17935;SDS011;9093;52.062;4.508;2023-03-01T14:04:18;5.90;;;2.97;;
17935;SDS011;9093;52.062;4.508;2023-03-01T14:07:20;13.20;;;3.03;;
17935;SDS011;9093;52.062;4.508;2023-03-01T14:10:04;8.48;;;2.45;;
17935;SDS011;9093;52.062;4.508;2023-03-01T14:15:36;6.85;;;3.33;;
17935;SDS011;9093;52.062;4.508;2023-03-01T14:18:35;5.10;;;2.80;;
17935;SDS011;9093;52.062;4.508;2023-03-01T14:21:39;8.52;;;2.88;;
17935;SDS011;9093;52.062;4.508;2023-03-01T14:24:20;5.13;;;3.10;;
17935;SDS011;9093;52.062;4.508;2023-03-01T14:27:02;4.00;;;2.20;;
17935;SDS011;9093;52.062;4.508;2023-03-01T14:29:43;7.32;;;2.65;;
17935;SDS011;9093;52.062;4.508;2023-03-01T14:32:25;8.65;;;4.00;;
17935;SDS011;9093;52.062;4.508;2023-03-01T14:35:24;7.72;;;3.10;;
17935;SDS011;9093;52.062;4.508;2023-03-01T14:38:22;5.65;;;3.13;;
17935;SDS011;9093;52.062;4.508;2023-03-01T14:41:24;5.72;;;2.83;;
17935;SDS011;9093;52.062;4.508;2023-03-01T14:44:12;4.93;;;2.88;;
17935;SDS011;9093;52.062;4.508;2023-03-01T14:46:59;4.40;;;2.25;;
17935;SDS011;9093;52.062;4.508;2023-03-01T14:49:42;3.75;;;2.33;;
17935;SDS011;9093;52.062;4.508;2023-03-01T14:52:25;5.15;;;2.85;;
17935;SDS011;9093;52.062;4.508;2023-03-01T14:55:18;5.18;;;2.65;;
17935;SDS011;9093;52.062;4.508;2023-03-01T14:58:04;8.57;;;3.30;;
17935;SDS011;9093;52.062;4.508;2023-03-01T15:00:50;8.07;;;2.92;;
17935;SDS011;9093;52.062;4.508;2023-03-01T15:03:41;5.70;;;2.80;;
17935;SDS011;9093;52.062;4.508;2023-03-01T15:06:23;4.70;;;2.50;;
17935;SDS011;9093;52.062;4.508;2023-03-01T15:09:04;6.53;;;2.72;;
17935;SDS011;9093;52.062;4.508;2023-03-01T15:11:45;4.72;;;2.28;;
17935;SDS011;9093;52.062;4.508;2023-03-01T15:14:37;6.03;;;2.47;;
17935;SDS011;9093;52.062;4.508;2023-03-01T15:17:27;5.63;;;2.58;;
17935;SDS011;9093;52.062;4.508;2023-03-01T15:20:15;6.07;;;2.55;;
17935;SDS011;9093;52.062;4.508;2023-03-01T15:22:58;4.35;;;2.30;;
17935;SDS011;9093;52.062;4.508;2023-03-01T15:25:43;7.70;;;3.00;;
17935;SDS011;9093;52.062;4.508;2023-03-01T15:31:23;6.97;;;3.13;;
17935;SDS011;9093;52.062;4.508;2023-03-01T15:37:04;5.38;;;3.22;;
17935;SDS011;9093;52.062;4.508;2023-03-01T15:48:02;6.25;;;2.63;;
17935;SDS011;9093;52.062;4.508;2023-03-01T15:50:44;4.88;;;2.78;;
17935;SDS011;9093;52.062;4.508;2023-03-01T15:53:34;3.15;;;2.40;;
17935;SDS011;9093;52.062;4.508;2023-03-01T15:56:15;3.53;;;2.47;;
17935;SDS011;9093;52.062;4.508;2023-03-01T15:58:59;3.60;;;2.28;;
17935;SDS011;9093;52.062;4.508;2023-03-01T16:01:40;5.43;;;2.30;;
17935;SDS011;9093;52.062;4.508;2023-03-01T16:04:21;5.40;;;2.58;;
17935;SDS011;9093;52.062;4.508;2023-03-01T16:07:02;7.88;;;2.53;;
17935;SDS011;9093;52.062;4.508;2023-03-01T16:09:43;5.43;;;2.33;;
17935;SDS011;9093;52.062;4.508;2023-03-01T16:12:23;4.55;;;2.63;;
17935;SDS011;9093;52.062;4.508;2023-03-01T16:15:04;6.63;;;2.95;;
17935;SDS011;9093;52.062;4.508;2023-03-01T16:17:53;5.22;;;2.65;;
17935;SDS011;9093;52.062;4.508;2023-03-01T16:20:34;5.07;;;2.85;;
17935;SDS011;9093;52.062;4.508;2023-03-01T16:23:14;5.07;;;2.58;;
17935;SDS011;9093;52.062;4.508;2023-03-01T16:25:58;5.35;;;2.75;;
17935;SDS011;9093;52.062;4.508;2023-03-01T16:28:39;6.53;;;2.67;;
17935;SDS011;9093;52.062;4.508;2023-03-01T16:31:21;9.48;;;3.65;;
17935;SDS011;9093;52.062;4.508;2023-03-01T16:34:02;4.88;;;2.58;;
17935;SDS011;9093;52.062;4.508;2023-03-01T16:36:42;13.32;;;3.28;;
17935;SDS011;9093;52.062;4.508;2023-03-01T16:39:23;4.75;;;2.65;;
17935;SDS011;9093;52.062;4.508;2023-03-01T16:42:03;6.68;;;2.75;;
17935;SDS011;9093;52.062;4.508;2023-03-01T16:44:43;6.93;;;2.80;;
17935;SDS011;9093;52.062;4.508;2023-03-01T16:47:24;6.32;;;2.47;;
17935;SDS011;9093;52.062;4.508;2023-03-01T16:50:04;3.55;;;2.03;;
17935;SDS011;9093;52.062;4.508;2023-03-01T16:52:45;4.85;;;2.75;;
17935;SDS011;9093;52.062;4.508;2023-03-01T16:55:25;5.60;;;2.97;;
17935;SDS011;9093;52.062;4.508;2023-03-01T16:58:05;7.70;;;3.35;;
17935;SDS011;9093;52.062;4.508;2023-03-01T17:00:46;8.35;;;3.05;;
17935;SDS011;9093;52.062;4.508;2023-03-01T17:03:26;9.60;;;2.85;;
17935;SDS011;9093;52.062;4.508;2023-03-01T17:06:07;5.75;;;2.63;;
17935;SDS011;9093;52.062;4.508;2023-03-01T17:08:50;7.20;;;2.78;;
17935;SDS011;9093;52.062;4.508;2023-03-01T17:11:31;4.70;;;2.72;;
17935;SDS011;9093;52.062;4.508;2023-03-01T17:14:11;13.95;;;2.40;;
17935;SDS011;9093;52.062;4.508;2023-03-01T17:16:51;5.68;;;2.38;;
17935;SDS011;9093;52.062;4.508;2023-03-01T17:19:32;3.58;;;2.22;;
17935;SDS011;9093;52.062;4.508;2023-03-01T17:22:15;6.05;;;2.85;;
17935;SDS011;9093;52.062;4.508;2023-03-01T17:24:56;6.70;;;3.33;;
17935;SDS011;9093;52.062;4.508;2023-03-01T17:27:37;3.83;;;2.58;;
17935;SDS011;9093;52.062;4.508;2023-03-01T17:30:18;5.85;;;2.70;;
17935;SDS011;9093;52.062;4.508;2023-03-01T17:32:58;3.83;;;2.35;;
17935;SDS011;9093;52.062;4.508;2023-03-01T17:35:39;2.92;;;2.33;;
17935;SDS011;9093;52.062;4.508;2023-03-01T17:38:19;6.72;;;2.28;;
17935;SDS011;9093;52.062;4.508;2023-03-01T17:40:59;4.68;;;2.80;;
17935;SDS011;9093;52.062;4.508;2023-03-01T17:43:40;6.63;;;2.70;;
17935;SDS011;9093;52.062;4.508;2023-03-01T17:46:20;3.60;;;2.20;;
17935;SDS011;9093;52.062;4.508;2023-03-01T17:49:01;4.88;;;2.17;;
17935;SDS011;9093;52.062;4.508;2023-03-01T17:51:41;5.90;;;3.03;;
17935;SDS011;9093;52.062;4.508;2023-03-01T17:54:21;3.83;;;2.58;;
17935;SDS011;9093;52.062;4.508;2023-03-01T17:57:04;9.98;;;2.55;;
17935;SDS011;9093;52.062;4.508;2023-03-01T17:59:47;5.05;;;2.78;;
17935;SDS011;9093;52.062;4.508;2023-03-01T18:02:28;9.82;;;3.92;;
17935;SDS011;9093;52.062;4.508;2023-03-01T18:05:08;7.13;;;3.10;;
17935;SDS011;9093;52.062;4.508;2023-03-01T18:07:50;7.00;;;3.05;;
17935;SDS011;9093;52.062;4.508;2023-03-01T18:10:31;7.25;;;2.67;;
17935;SDS011;9093;52.062;4.508;2023-03-01T18:13:15;5.05;;;2.90;;
17935;SDS011;9093;52.062;4.508;2023-03-01T18:15:55;8.45;;;2.97;;
17935;SDS011;9093;52.062;4.508;2023-03-01T18:18:40;7.45;;;3.20;;
17935;SDS011;9093;52.062;4.508;2023-03-01T18:21:21;6.05;;;3.28;;
17935;SDS011;9093;52.062;4.508;2023-03-01T18:24:02;10.50;;;3.60;;
17935;SDS011;9093;52.062;4.508;2023-03-01T18:26:43;10.95;;;3.45;;